createdAt,value
2022-08-23T00:02:23.410Z,1.00
2022-08-23T00:04:53.254Z,0.90
2022-08-23T00:07:38.218Z,0.90
2022-08-23T00:10:05.345Z,0.90
2022-08-23T00:12:31.655Z,0.90
2022-08-23T00:14:57.918Z,0.90
2022-08-23T00:17:33.483Z,0.90
2022-08-23T00:20:01.151Z,1.00
2022-08-23T00:22:27.526Z,1.00
2022-08-23T00:24:53.801Z,0.90
2022-08-23T00:27:20.125Z,0.90
2022-08-23T00:29:48.312Z,1.00
2022-08-23T00:32:16.583Z,0.90
2022-08-23T00:34:42.902Z,1.00
2022-08-23T00:37:09.791Z,0.93
2022-08-23T00:39:36.665Z,1.00
2022-08-23T00:42:30.776Z,1.00
2022-08-23T00:45:17.522Z,0.90
2022-08-23T00:47:44.970Z,1.00
2022-08-23T00:50:30.029Z,1.00
2022-08-23T00:53:05.256Z,1.00
2022-08-23T00:55:32.327Z,1.00
2022-08-23T00:57:59.092Z,1.07
2022-08-23T01:00:25.954Z,1.00
2022-08-23T01:02:52.466Z,1.10
2022-08-23T01:05:19.899Z,1.10
2022-08-23T01:07:52.037Z,1.10
2022-08-23T01:10:22.497Z,1.10
2022-08-23T01:12:52.194Z,1.00
2022-08-23T01:15:24.589Z,1.00
2022-08-23T01:17:55.040Z,1.10
2022-08-23T01:20:26.799Z,1.10
2022-08-23T01:23:22.946Z,1.00
2022-08-23T01:25:57.109Z,1.10
2022-08-23T01:28:23.406Z,1.10
2022-08-23T01:30:49.679Z,1.10
2022-08-23T01:33:18.545Z,1.10
2022-08-23T01:35:47.593Z,1.10
2022-08-23T01:38:14.194Z,1.10
2022-08-23T01:40:41.066Z,1.10
2022-08-23T01:43:07.918Z,1.10
2022-08-23T01:45:34.886Z,1.10
2022-08-23T01:48:01.546Z,1.13
2022-08-23T01:50:28.294Z,1.10
2022-08-23T01:52:54.928Z,1.00
2022-08-23T01:55:21.978Z,1.10
2022-08-23T01:57:50.171Z,1.10
2022-08-23T02:00:16.911Z,1.10
2022-08-23T02:02:43.206Z,1.20
2022-08-23T02:05:09.570Z,1.10
2022-08-23T02:07:35.847Z,1.30
2022-08-23T02:10:02.797Z,1.20
2022-08-23T02:12:29.241Z,1.17
2022-08-23T02:14:56.657Z,1.20
2022-08-23T02:17:22.927Z,1.17
2022-08-23T02:19:49.499Z,1.20
2022-08-23T02:22:15.777Z,1.20
2022-08-23T02:24:44.522Z,1.20
2022-08-23T02:27:11.956Z,1.20
2022-08-23T02:29:39.269Z,1.20
2022-08-23T02:32:06.426Z,1.20
2022-08-23T02:37:17.375Z,1.30
2022-08-23T02:39:43.906Z,1.30
2022-08-23T02:42:11.801Z,1.30
2022-08-23T02:44:38.813Z,1.27
2022-08-23T02:47:07.709Z,1.30
2022-08-23T02:49:34.158Z,1.30
2022-08-23T02:52:00.581Z,1.30
2022-08-23T02:54:26.937Z,1.30
2022-08-23T02:56:53.969Z,1.30
2022-08-23T02:59:20.540Z,1.30
2022-08-23T03:01:46.987Z,1.40
2022-08-23T03:04:13.616Z,1.20
2022-08-23T03:06:40.616Z,1.30
2022-08-23T03:09:07.566Z,1.30
2022-08-23T03:11:34.504Z,1.30
2022-08-23T03:14:02.018Z,1.20
2022-08-23T03:16:28.922Z,1.30
2022-08-23T03:18:55.512Z,1.30
2022-08-23T03:21:21.946Z,1.30
2022-08-23T03:23:49.707Z,1.20
2022-08-23T03:26:16.268Z,1.30
2022-08-23T03:28:43.577Z,1.23
2022-08-23T03:31:10.286Z,1.30
2022-08-23T03:33:37.002Z,1.20
2022-08-23T03:36:04.686Z,1.20
2022-08-23T03:38:30.986Z,1.20
2022-08-23T03:40:57.351Z,1.30
2022-08-23T03:43:23.803Z,1.20
2022-08-23T03:45:50.105Z,1.30
2022-08-23T03:48:16.758Z,1.30
2022-08-23T03:50:43.312Z,1.30
2022-08-23T03:53:09.599Z,1.30
2022-08-23T03:55:42.484Z,1.20
2022-08-23T03:58:09.671Z,1.30
2022-08-23T04:00:39.018Z,1.40
2022-08-23T04:03:05.380Z,1.30
2022-08-23T04:05:31.684Z,1.40
2022-08-23T04:08:00.610Z,1.40
2022-08-23T04:10:27.062Z,1.50
2022-08-23T04:12:54.895Z,1.40
2022-08-23T04:15:21.793Z,1.37
2022-08-23T04:17:48.174Z,1.50
2022-08-23T04:20:14.754Z,1.40
2022-08-23T04:22:41.068Z,1.50
2022-08-23T04:25:17.688Z,1.50
2022-08-23T04:27:54.767Z,1.40
2022-08-23T04:30:21.149Z,1.50
2022-08-23T04:32:48.029Z,1.50
2022-08-23T04:35:15.299Z,1.50
2022-08-23T04:37:42.242Z,1.50
2022-08-23T04:40:27.819Z,1.50
2022-08-23T04:42:54.125Z,1.50
2022-08-23T04:45:20.580Z,1.50
2022-08-23T04:47:46.897Z,1.50
2022-08-23T04:50:13.733Z,1.57
2022-08-23T04:52:40.706Z,1.50
2022-08-23T04:55:07.198Z,1.50
2022-08-23T04:57:33.464Z,1.50
2022-08-23T05:00:00.539Z,1.50
2022-08-23T05:02:27.682Z,1.50
2022-08-23T05:04:53.983Z,1.50
2022-08-23T05:07:20.273Z,1.60
2022-08-23T05:09:58.226Z,1.50
2022-08-23T05:12:24.704Z,1.50
2022-08-23T05:14:51.104Z,1.50
2022-08-23T05:17:18.535Z,1.50
2022-08-23T05:19:47.270Z,1.50
2022-08-23T05:22:13.637Z,1.50
2022-08-23T05:24:39.922Z,1.50
2022-08-23T05:27:10.611Z,1.50
2022-08-23T05:29:40.433Z,1.73
2022-08-23T05:32:06.732Z,1.50
2022-08-23T05:34:33.115Z,1.50
2022-08-23T05:36:59.390Z,1.50
2022-08-23T05:39:32.916Z,1.60
2022-08-23T05:42:03.886Z,1.60
2022-08-23T05:44:30.321Z,1.50
2022-08-23T05:47:02.765Z,1.50
2022-08-23T05:49:29.161Z,1.50
2022-08-23T05:51:55.846Z,1.60
2022-08-23T05:54:22.288Z,1.50
2022-08-23T05:56:48.558Z,1.50
2022-08-23T05:59:16.653Z,1.50
2022-08-23T06:01:43.205Z,1.60
2022-08-23T06:04:11.320Z,1.40
2022-08-23T06:06:38.769Z,1.50
2022-08-23T06:09:06.268Z,1.50
2022-08-23T06:11:32.998Z,1.50
2022-08-23T06:14:00.856Z,1.50
2022-08-23T06:16:31.575Z,1.60
2022-08-23T06:18:58.538Z,1.50
2022-08-23T06:21:27.010Z,1.60
2022-08-23T06:23:53.388Z,1.50
2022-08-23T06:26:21.589Z,1.50
2022-08-23T06:28:51.699Z,1.30
2022-08-23T06:31:38.841Z,1.40
2022-08-23T06:34:05.284Z,1.40
2022-08-23T06:36:31.684Z,1.40
2022-08-23T06:38:58.065Z,1.40
2022-08-23T06:41:24.474Z,1.40
2022-08-23T06:43:51.380Z,1.40
2022-08-23T06:46:23.410Z,1.30
2022-08-23T06:48:50.885Z,1.30
2022-08-23T06:51:24.604Z,1.37
2022-08-23T06:53:56.447Z,1.40
2022-08-23T06:56:24.045Z,1.30
2022-08-23T06:58:50.590Z,1.40
2022-08-23T07:01:45.114Z,1.30
2022-08-23T07:04:13.080Z,1.30
2022-08-23T07:06:39.463Z,1.40
2022-08-23T07:09:06.288Z,1.30
2022-08-23T07:11:32.966Z,1.30
2022-08-23T07:14:04.401Z,1.30
2022-08-23T07:16:34.734Z,1.30
2022-08-23T07:19:01.215Z,1.20
2022-08-23T07:21:27.559Z,1.30
2022-08-23T07:23:53.879Z,1.20
2022-08-23T07:26:21.439Z,1.23
2022-08-23T07:28:47.714Z,1.20
2022-08-23T07:31:16.147Z,1.10
2022-08-23T07:33:44.569Z,1.20
2022-08-23T07:36:13.427Z,1.20
2022-08-23T07:38:39.864Z,1.20
2022-08-23T07:41:06.420Z,1.20
2022-08-23T07:43:34.237Z,1.20
2022-08-23T07:46:01.001Z,1.10
2022-08-23T07:48:50.617Z,1.20
2022-08-23T07:51:14.235Z,1.20
2022-08-23T07:53:43.069Z,1.10
2022-08-23T07:56:12.682Z,1.10
2022-08-23T07:58:39.445Z,1.00
2022-08-23T08:01:12.466Z,1.10
2022-08-23T08:03:39.505Z,1.10
2022-08-23T08:06:10.340Z,1.00
2022-08-23T08:08:36.648Z,1.00
2022-08-23T08:11:03.316Z,1.00
2022-08-23T08:13:29.714Z,1.00
2022-08-23T08:15:56.068Z,1.00
2022-08-23T08:18:22.391Z,1.00
2022-08-23T08:20:48.669Z,1.00
2022-08-23T08:23:14.976Z,1.00
2022-08-23T08:25:41.262Z,1.00
2022-08-23T08:28:11.493Z,1.00
2022-08-23T08:30:41.500Z,0.90
2022-08-23T08:33:07.978Z,0.90
2022-08-23T08:35:34.263Z,0.90
2022-08-23T08:38:01.984Z,0.90
2022-08-23T08:40:31.363Z,0.90
2022-08-23T08:43:05.594Z,0.90
2022-08-23T08:45:36.489Z,0.90
2022-08-23T08:48:05.350Z,0.90
2022-08-23T08:50:34.431Z,0.80
2022-08-23T08:53:01.952Z,0.90
2022-08-23T08:55:33.733Z,0.90
2022-08-23T08:58:00.815Z,0.80
2022-08-23T09:00:28.791Z,0.90
2022-08-23T09:02:56.116Z,0.87
2022-08-23T09:05:27.597Z,0.80
2022-08-23T09:08:01.623Z,0.80
2022-08-23T09:10:28.107Z,0.90
2022-08-23T09:13:03.491Z,0.90
2022-08-23T09:15:34.608Z,0.80
2022-08-23T09:18:15.662Z,0.80
2022-08-23T09:20:43.466Z,0.80
2022-08-23T09:23:17.114Z,0.80
2022-08-23T09:25:59.884Z,0.80
2022-08-23T09:28:30.842Z,0.80
2022-08-23T09:30:58.650Z,0.70
2022-08-23T09:33:51.380Z,0.73
2022-08-23T09:36:17.702Z,0.70
2022-08-23T09:38:50.905Z,0.70
2022-08-23T09:41:20.234Z,0.70
2022-08-23T09:43:50.276Z,0.67
2022-08-23T09:46:31.001Z,0.70
2022-08-23T09:48:58.975Z,0.60
2022-08-23T09:51:27.121Z,0.70
2022-08-23T09:54:04.374Z,0.70
2022-08-23T09:56:31.889Z,0.60
2022-08-23T09:58:58.209Z,0.60
2022-08-23T10:01:28.877Z,0.60
2022-08-23T10:04:05.843Z,0.50
2022-08-23T10:06:34.000Z,0.60
2022-08-23T10:09:05.044Z,0.60
2022-08-23T10:11:34.761Z,0.50
2022-08-23T10:14:01.168Z,0.50
2022-08-23T10:16:42.824Z,0.50
2022-08-23T10:19:09.095Z,0.50
2022-08-23T10:21:41.118Z,0.60
2022-08-23T10:24:24.099Z,0.50
2022-08-23T10:26:59.239Z,0.50
2022-08-23T10:29:37.694Z,0.40
2022-08-23T10:32:22.842Z,0.40
2022-08-23T10:35:07.833Z,0.40
2022-08-23T10:37:51.270Z,0.40
2022-08-23T10:40:17.716Z,0.40
2022-08-23T10:42:55.622Z,0.40
2022-08-23T10:45:36.090Z,0.40
2022-08-23T10:48:11.878Z,0.40
2022-08-23T10:50:55.667Z,0.40
2022-08-23T10:53:24.103Z,0.40
2022-08-23T10:56:07.455Z,0.40
2022-08-23T10:58:36.780Z,0.40
2022-08-23T11:01:04.575Z,0.40
2022-08-23T11:03:32.893Z,0.30
2022-08-23T11:06:17.643Z,0.40
2022-08-23T11:08:47.857Z,0.30
2022-08-23T11:11:52.923Z,0.30
2022-08-23T11:14:27.630Z,0.30
2022-08-23T11:17:02.648Z,0.30
2022-08-23T11:19:47.852Z,0.30
2022-08-23T11:22:16.264Z,0.27
2022-08-23T11:24:57.503Z,0.20
2022-08-23T11:27:43.402Z,0.20
2022-08-23T11:30:28.629Z,0.20
2022-08-23T11:32:55.278Z,0.20
2022-08-23T11:35:27.784Z,0.20
2022-08-23T11:38:03.827Z,0.10
2022-08-23T11:40:50.595Z,0.10
2022-08-23T11:43:31.697Z,0.27
2022-08-23T11:46:25.622Z,0.10
2022-08-23T11:49:11.309Z,0.10
2022-08-23T11:51:43.314Z,0.10
2022-08-23T11:54:28.247Z,0.10
2022-08-23T11:57:03.685Z,0.10
2022-08-23T11:59:34.850Z,0.07
2022-08-23T12:02:26.278Z,0.00
2022-08-23T12:04:55.487Z,0.00
2022-08-23T12:07:40.825Z,0.00
2022-08-23T12:10:07.216Z,0.00
2022-08-23T12:12:38.676Z,0.00
2022-08-23T12:15:08.765Z,0.00
2022-08-23T12:17:35.121Z,0.00
2022-08-23T12:20:16.798Z,0.00
2022-08-23T12:22:52.750Z,0.00
2022-08-23T12:25:20.113Z,0.00
2022-08-23T12:27:49.103Z,0.00
2022-08-23T12:30:18.282Z,0.00
2022-08-23T12:32:57.665Z,0.00
2022-08-23T12:35:31.945Z,0.00
2022-08-23T12:38:16.502Z,0.00
2022-08-23T12:40:44.884Z,0.00
2022-08-23T12:43:17.542Z,0.00
2022-08-23T12:46:06.968Z,0.00
2022-08-23T12:48:44.780Z,0.00
2022-08-23T12:51:12.137Z,0.00
2022-08-23T12:53:44.773Z,0.00
2022-08-23T12:56:32.594Z,0.00
2022-08-23T12:59:04.408Z,0.00
2022-08-23T13:01:32.766Z,0.00
2022-08-23T13:04:02.244Z,0.00
2022-08-23T13:06:31.741Z,0.00
2022-08-23T13:09:17.084Z,0.00
2022-08-23T13:11:43.890Z,0.00
2022-08-23T13:14:45.529Z,0.00
2022-08-23T13:17:32.316Z,0.00
2022-08-23T13:20:01.461Z,0.00
2022-08-23T13:22:28.812Z,0.00
2022-08-23T13:25:28.172Z,0.00
2022-08-23T13:27:55.890Z,0.00
2022-08-23T13:30:26.662Z,0.00
2022-08-23T13:33:12.884Z,0.00
2022-08-23T13:35:47.005Z,0.07
2022-08-23T13:38:20.480Z,0.00
2022-08-23T13:40:50.206Z,0.30
2022-08-23T13:43:22.438Z,0.00
2022-08-23T13:45:54.465Z,0.20
2022-08-23T13:48:25.849Z,0.00
2022-08-23T13:50:52.866Z,0.00
2022-08-23T13:53:19.648Z,0.00
2022-08-23T13:55:47.997Z,0.00
2022-08-23T13:58:24.806Z,0.00
2022-08-23T14:00:55.471Z,0.00
2022-08-23T14:03:22.444Z,0.00
2022-08-23T14:05:48.931Z,0.00
2022-08-23T14:08:15.247Z,0.00
2022-08-23T14:10:41.889Z,0.00
2022-08-23T14:13:10.744Z,0.00
2022-08-23T14:18:24.640Z,0.00
2022-08-23T14:20:51.762Z,0.00
2022-08-23T14:23:18.815Z,0.00
2022-08-23T14:25:45.784Z,0.00
2022-08-23T14:28:12.626Z,0.00
2022-08-23T14:30:39.228Z,0.00
2022-08-23T14:33:06.351Z,0.00
2022-08-23T14:35:32.997Z,0.00
2022-08-23T14:38:03.737Z,0.00
2022-08-23T14:40:30.447Z,0.00
2022-08-23T14:42:56.877Z,0.00
2022-08-23T14:45:23.517Z,0.00
2022-08-23T14:47:49.984Z,0.00
2022-08-23T14:50:16.371Z,0.00
2022-08-23T14:52:44.149Z,0.00
2022-08-23T14:55:10.800Z,0.00
2022-08-23T14:57:37.055Z,0.00
2022-08-23T15:00:05.888Z,0.00
2022-08-23T15:02:32.207Z,0.00
2022-08-23T15:04:59.022Z,0.00
2022-08-23T15:07:25.283Z,0.00
2022-08-23T15:09:54.551Z,0.00
2022-08-23T15:15:09.621Z,0.00
2022-08-23T15:17:43.569Z,0.00
2022-08-23T15:20:10.411Z,0.00
2022-08-23T15:22:44.468Z,0.00
2022-08-23T15:25:11.759Z,0.00
2022-08-23T15:27:38.036Z,0.00
2022-08-23T15:30:04.723Z,0.00
2022-08-23T15:32:33.100Z,0.00
2022-08-23T15:34:59.577Z,0.00
2022-08-23T15:37:25.963Z,0.00
2022-08-23T15:39:52.282Z,0.00
2022-08-23T15:42:20.313Z,0.00
2022-08-23T15:44:47.077Z,0.00
2022-08-23T15:47:25.276Z,0.00
2022-08-23T15:49:51.707Z,0.00
2022-08-23T15:52:18.296Z,0.00
2022-08-23T15:54:44.576Z,0.00
2022-08-23T15:57:18.046Z,0.00
2022-08-23T15:59:44.487Z,0.00
2022-08-23T16:02:11.453Z,0.00
2022-08-23T16:04:38.278Z,0.00
2022-08-23T16:07:05.538Z,0.00
2022-08-23T16:09:33.680Z,0.00
2022-08-23T16:12:01.873Z,0.00
2022-08-23T16:14:28.634Z,0.00
2022-08-23T16:16:55.029Z,0.00
2022-08-23T16:19:25.179Z,0.00
2022-08-23T16:21:53.389Z,0.08
2022-08-23T16:24:20.402Z,0.00
2022-08-23T16:26:51.467Z,0.00
2022-08-23T16:29:19.192Z,0.00
2022-08-23T16:31:45.980Z,0.00
2022-08-23T16:34:19.277Z,0.00
2022-08-23T16:36:47.540Z,0.00
2022-08-23T16:39:14.453Z,3.53
2022-08-23T16:41:40.788Z,0.00
2022-08-23T16:44:07.506Z,0.00
2022-08-23T16:46:35.088Z,0.00
2022-08-23T16:49:01.361Z,0.00
2022-08-23T16:51:27.720Z,0.00
2022-08-23T16:54:01.640Z,0.00
2022-08-23T16:56:29.772Z,0.00
2022-08-23T16:58:56.812Z,0.00
2022-08-23T17:01:23.191Z,0.00
2022-08-23T17:03:49.576Z,0.00
2022-08-23T17:06:16.951Z,0.00
2022-08-23T17:08:43.287Z,0.00
2022-08-23T17:11:12.753Z,0.00
2022-08-23T17:13:39.896Z,0.00
2022-08-23T17:16:06.585Z,0.00
2022-08-23T17:18:32.899Z,0.00
2022-08-23T17:20:59.345Z,0.00
2022-08-23T17:23:25.615Z,0.00
2022-08-23T17:25:51.895Z,0.00
2022-08-23T17:28:18.487Z,0.00
2022-08-23T17:30:44.772Z,0.00
2022-08-23T17:33:11.049Z,0.00
2022-08-23T17:35:39.079Z,0.00
2022-08-23T17:38:05.762Z,0.00
2022-08-23T17:40:33.947Z,0.00
2022-08-23T17:43:00.715Z,0.00
2022-08-23T17:45:27.885Z,0.00
2022-08-23T17:47:54.237Z,0.00
2022-08-23T17:50:21.866Z,0.00
2022-08-23T17:52:48.142Z,0.00
2022-08-23T17:55:18.357Z,0.00
2022-08-23T17:57:45.964Z,0.00
2022-08-23T18:00:15.920Z,0.00
2022-08-23T18:02:43.181Z,0.00
2022-08-23T18:05:10.512Z,0.13
2022-08-23T18:07:37.336Z,0.00
2022-08-23T18:10:04.619Z,0.00
2022-08-23T18:12:30.903Z,0.00
2022-08-23T18:14:57.368Z,0.00
2022-08-23T18:17:23.928Z,0.00
2022-08-23T18:19:51.799Z,0.00
2022-08-23T18:22:18.085Z,0.00
2022-08-23T18:24:44.436Z,0.00
2022-08-23T18:27:29.178Z,0.00
2022-08-23T18:29:55.482Z,0.00
2022-08-23T18:32:22.986Z,0.00
2022-08-23T18:34:49.274Z,0.00
2022-08-23T18:37:21.553Z,0.00
2022-08-23T18:39:48.476Z,0.00
2022-08-23T18:42:15.228Z,0.00
2022-08-23T18:44:41.760Z,0.00
2022-08-23T18:47:08.230Z,0.10
2022-08-23T18:49:35.577Z,0.10
2022-08-23T18:52:02.553Z,0.00
2022-08-23T18:54:33.114Z,0.10
2022-08-23T18:57:00.612Z,0.10
2022-08-23T18:59:27.140Z,0.10
2022-08-23T19:01:53.561Z,0.10
2022-08-23T19:04:19.980Z,0.10
2022-08-23T19:06:46.901Z,0.10
2022-08-23T19:09:13.446Z,0.10
2022-08-23T19:11:40.340Z,0.10
2022-08-23T19:14:07.167Z,0.10
2022-08-23T19:16:33.549Z,0.10
2022-08-23T19:19:00.652Z,0.10
2022-08-23T19:21:27.210Z,0.10
2022-08-23T19:23:56.091Z,0.10
2022-08-23T19:26:24.562Z,0.10
2022-08-23T19:28:50.876Z,0.10
2022-08-23T19:31:17.323Z,0.10
2022-08-23T19:33:43.847Z,0.10
2022-08-23T19:36:23.731Z,0.10
2022-08-23T19:38:57.040Z,0.10
2022-08-23T19:41:23.442Z,0.10
2022-08-23T19:43:49.730Z,0.13
2022-08-23T19:46:16.524Z,0.10
2022-08-23T19:48:45.396Z,0.10
2022-08-23T19:51:15.718Z,0.10
2022-08-23T19:53:42.135Z,0.10
2022-08-23T19:56:10.205Z,0.10
2022-08-23T19:58:37.716Z,0.20
2022-08-23T20:01:04.094Z,0.20
2022-08-23T20:03:30.620Z,0.20
2022-08-23T20:05:56.940Z,0.20
2022-08-23T20:08:24.756Z,0.20
2022-08-23T20:10:51.114Z,0.20
2022-08-23T20:13:17.489Z,0.20
2022-08-23T20:15:45.312Z,0.20
2022-08-23T20:18:11.571Z,0.20
2022-08-23T20:20:37.858Z,0.20
2022-08-23T20:23:22.624Z,0.20
2022-08-23T20:25:49.185Z,0.20
2022-08-23T20:28:15.497Z,0.20
2022-08-23T20:30:41.786Z,0.30
2022-08-23T20:33:08.077Z,0.20
2022-08-23T20:35:34.420Z,0.20
2022-08-23T20:38:02.386Z,0.30
2022-08-23T20:40:28.866Z,0.20
2022-08-23T20:42:55.306Z,0.30
2022-08-23T20:45:21.646Z,0.30
2022-08-23T20:47:48.048Z,0.30
2022-08-23T20:50:14.456Z,0.30
2022-08-23T20:52:40.813Z,0.30
2022-08-23T20:55:10.590Z,0.30
2022-08-23T20:57:38.571Z,0.30
2022-08-23T21:00:05.257Z,0.30
2022-08-23T21:02:31.623Z,0.30
2022-08-23T21:04:57.981Z,0.30
2022-08-23T21:07:24.309Z,0.30
2022-08-23T21:09:54.209Z,0.30
2022-08-23T21:12:20.468Z,0.30
2022-08-23T21:14:46.972Z,0.30
2022-08-23T21:17:13.241Z,0.30
2022-08-23T21:19:39.638Z,0.30
2022-08-23T21:22:06.452Z,0.30
2022-08-23T21:24:32.889Z,0.33
2022-08-23T21:26:59.148Z,0.40
2022-08-23T21:29:25.429Z,0.33
2022-08-23T21:31:52.570Z,0.30
2022-08-23T21:34:19.477Z,0.40
2022-08-23T21:36:45.838Z,0.40
2022-08-23T21:39:12.094Z,0.40
2022-08-23T21:41:42.757Z,0.40
2022-08-23T21:44:13.608Z,0.40
2022-08-23T21:46:40.495Z,0.40
2022-08-23T21:49:07.175Z,0.40
2022-08-23T21:51:34.848Z,0.40
2022-08-23T21:54:01.974Z,0.40
2022-08-23T21:56:28.236Z,0.40
2022-08-23T21:58:58.940Z,0.40
2022-08-23T22:01:25.983Z,0.40
2022-08-23T22:03:56.648Z,0.40
2022-08-23T22:06:23.588Z,0.40
2022-08-23T22:08:49.846Z,0.43
2022-08-23T22:11:16.185Z,0.40
2022-08-23T22:13:42.817Z,0.40
2022-08-23T22:16:09.461Z,0.40
2022-08-23T22:18:35.949Z,0.50
2022-08-23T22:21:04.177Z,0.50
2022-08-23T22:23:31.405Z,0.40
2022-08-23T22:26:01.566Z,0.50
2022-08-23T22:28:29.813Z,0.43
2022-08-23T22:31:02.923Z,0.40
2022-08-23T22:33:29.721Z,0.50
2022-08-23T22:36:01.864Z,0.50
2022-08-23T22:38:28.182Z,0.50
2022-08-23T22:40:54.437Z,0.50
2022-08-23T22:43:20.683Z,0.40
2022-08-23T22:45:55.325Z,0.50
2022-08-23T22:48:23.456Z,0.50
2022-08-23T22:50:50.136Z,0.43
2022-08-23T22:53:17.078Z,0.50
2022-08-23T22:55:48.816Z,0.50
2022-08-23T22:58:15.073Z,0.50
2022-08-23T23:00:42.407Z,0.50
2022-08-23T23:03:08.716Z,0.50
2022-08-23T23:05:36.877Z,0.50
2022-08-23T23:08:21.649Z,0.50
2022-08-23T23:10:47.953Z,0.50
2022-08-23T23:13:14.211Z,0.50
2022-08-23T23:15:41.323Z,0.50
2022-08-23T23:18:07.590Z,0.50
2022-08-23T23:20:37.937Z,0.57
2022-08-23T23:23:05.241Z,0.50
2022-08-23T23:25:31.724Z,0.50
2022-08-23T23:28:02.399Z,0.60
2022-08-23T23:30:28.996Z,0.50
2022-08-23T23:32:55.625Z,0.60
2022-08-23T23:35:21.906Z,0.50
2022-08-23T23:37:49.651Z,0.60
2022-08-23T23:40:16.750Z,0.60
2022-08-23T23:42:43.275Z,0.53
2022-08-23T23:45:11.147Z,0.60
2022-08-23T23:47:37.925Z,0.60
2022-08-23T23:50:04.927Z,0.60
2022-08-23T23:52:31.207Z,0.63
2022-08-23T23:54:57.507Z,0.60
2022-08-23T23:57:23.753Z,0.60
2022-08-23T23:59:50.008Z,0.60
